Terminal Aerodrome Forecast
Issued by NWS

Home | Current Version | Previous Version | Graphics & Text | Print | Product List | Glossary On
Versions: 1 2 3 4 5 6 7 8 9 10 11 12 13 14 15 16 17 18 19 20 21 22 23 24 25
285
FTUS43 KABR 060538
TAFATY
TAF
KATY 060538Z 0606/0706 18006KT 1/4SM FZFG VV002
     FM061000 22012KT 3SM BR BKN006 BKN200
     FM061600 25013KT P6SM FEW010 BKN150=

USA.gov is the U.S. government's official web portal to all federal, state and local government web resources and services.